Time;durP1;ratioP1;P1;durP2;ratioP2;P2;SDS_P1;SDS_P2;PMS_P1;PMS_P2;Temp;Humidity;BMP_temperature;BMP_pressure;BME280_temperature;BME280_humidity;BME280_pressure;Samples;Min_cycle;Max_cycle;Signal;HPM_P1;HPM_P2
2022/02/04 00:08:10;;;;;;;10.40;8.60;;;;;;;9.13;89.31;97966.03;4173511;28;20588;-82
2022/02/04 00:22:37;;;;;;;11.10;8.60;;;;;;;9.10;89.48;97992.22;4175597;28;20634;-82
2022/02/04 00:24:40;;;;;;;8.40;7.17;;;;;;;9.02;88.84;97984.06;4175580;28;20309;-82
2022/02/04 00:26:49;;;;;;;9.73;7.72;;;;;;;9.05;88.67;97989.06;4173683;28;20643;-84
2022/02/04 00:29:00;;;;;;;9.80;7.80;;;;;;;9.05;89.67;97991.66;4160502;28;20207;-83
2022/02/04 00:31:16;;;;;;;9.43;7.72;;;;;;;9.05;89.43;98000.31;4191955;28;20209;-83
2022/02/04 00:33:19;;;;;;;9.15;7.80;;;;;;;9.03;88.43;97985.75;4184699;28;20230;-83
2022/02/04 00:35:31;;;;;;;8.15;7.05;;;;;;;9.03;88.89;97996.16;4174500;28;20214;-83
2022/02/04 00:37:45;;;;;;;9.43;8.10;;;;;;;9.04;88.62;97988.25;4160694;28;20218;-82
2022/02/04 00:39:55;;;;;;;9.38;7.85;;;;;;;9.07;88.27;97995.03;4159804;28;20633;-83
2022/02/04 00:42:06;;;;;;;8.45;7.60;;;;;;;9.11;88.40;97996.47;4177341;28;20202;-83
2022/02/04 00:44:18;;;;;;;11.23;8.43;;;;;;;9.08;88.48;97999.28;4176495;28;20296;-83
2022/02/04 00:46:26;;;;;;;9.15;7.53;;;;;;;9.04;88.79;97996.03;4174395;28;20222;-83
2022/02/04 00:48:54;;;;;;;8.90;6.67;;;;;;;9.04;88.59;97998.66;4188096;28;21310;-83
2022/02/04 00:50:58;;;;;;;8.67;7.00;;;;;;;9.02;88.64;97999.66;4171743;28;20694;-82
2022/02/04 00:53:10;;;;;;;10.40;7.60;;;;;;;9.03;88.65;97994.38;4176170;28;20641;-82
2022/02/04 00:55:23;;;;;;;10.25;7.55;;;;;;;9.05;88.44;97997.72;4174351;28;20633;-83
2022/02/04 00:57:44;;;;;;;8.93;7.67;;;;;;;9.06;88.31;97999.38;4160864;28;20251;-82
2022/02/04 01:26:03;;;;;;;9.95;7.38;;;;;;;8.99;88.08;98008.53;4165203;28;20217;-82
2022/02/04 01:28:06;;;;;;;8.80;6.47;;;;;;;8.98;88.20;98009.44;4149958;28;20836;-83
2022/02/04 01:30:17;;;;;;;8.02;5.47;;;;;;;8.93;88.52;98008.91;4179600;28;20207;-82
2022/02/04 01:32:20;;;;;;;10.70;5.78;;;;;;;8.91;88.19;98009.09;4164694;28;20207;-83
2022/02/04 01:34:23;;;;;;;8.70;6.32;;;;;;;8.85;88.52;98012.91;4151220;28;20219;-82
2022/02/04 01:36:26;;;;;;;6.80;5.47;;;;;;;8.83;88.78;98019.16;4169587;28;20230;-83
2022/02/04 01:38:31;;;;;;;8.40;5.47;;;;;;;8.85;89.41;98004.28;4169168;28;21230;-83
2022/02/04 01:40:34;;;;;;;12.40;5.90;;;;;;;8.79;88.34;98008.09;4160399;28;20712;-83
2022/02/04 01:42:39;;;;;;;7.38;5.20;;;;;;;8.78;89.02;97995.19;4177720;28;20196;-82
2022/02/04 01:44:42;;;;;;;7.28;4.78;;;;;;;8.78;89.13;98003.84;4188662;28;20256;-82
2022/02/04 01:46:45;;;;;;;8.75;5.32;;;;;;;8.77;88.52;98009.13;4159032;28;20207;-83
2022/02/04 01:48:49;;;;;;;6.40;5.03;;;;;;;8.74;88.12;97998.94;4164280;28;20206;-82
2022/02/04 01:50:53;;;;;;;7.63;5.63;;;;;;;8.68;87.96;98004.50;4178999;28;20651;-83
2022/02/04 01:52:57;;;;;;;8.77;4.80;;;;;;;8.64;89.87;98000.41;4176930;28;20202;-83
2022/02/04 01:55:00;;;;;;;6.95;4.78;;;;;;;8.61;89.72;98001.44;4164514;28;21277;-82
2022/02/04 01:57:05;;;;;;;6.80;4.78;;;;;;;8.59;89.50;98002.47;4179515;28;20233;-83
2022/02/04 01:59:09;;;;;;;5.97;4.65;;;;;;;8.58;89.59;97998.19;4191948;28;20225;-82
2022/02/04 02:01:13;;;;;;;8.10;5.38;;;;;;;8.59;90.44;98005.06;4159454;28;20709;-84
2022/02/04 02:03:16;;;;;;;6.10;4.65;;;;;;;8.58;90.00;98013.78;4162650;28;20216;-83
2022/02/04 02:05:19;;;;;;;6.75;4.70;;;;;;;8.56;90.23;98003.50;4194981;28;20624;-83
2022/02/04 02:07:25;;;;;;;7.45;4.93;;;;;;;8.58;90.39;98012.00;4174809;28;20209;-82
2022/02/04 02:09:51;;;;;;;7.53;5.78;;;;;;;8.59;90.24;98012.88;4178743;28;20201;-85
2022/02/04 02:12:10;;;;;;;9.57;4.93;;;;;;;8.57;90.84;98007.78;4177250;28;20198;-83
2022/02/04 02:14:17;;;;;;;8.70;6.25;;;;;;;8.61;90.71;98014.44;4152850;28;20331;-83
2022/02/04 02:16:50;;;;;;;9.73;5.95;;;;;;;8.61;91.34;98003.19;4172699;28;20220;-84
2022/02/04 02:33:38;;;;;;;9.82;6.70;;;;;;;8.64;91.56;98011.63;4186137;28;20201;-83
2022/02/04 02:36:05;;;;;;;10.33;6.87;;;;;;;8.65;91.47;98017.69;4186015;28;20226;-83
2022/02/04 02:43:11;;;;;;;9.75;6.55;;;;;;;8.66;91.80;98014.13;4166827;28;20217;-83
2022/02/04 02:45:29;;;;;;;9.85;7.50;;;;;;;8.63;92.31;98015.19;4176399;28;20202;-84
2022/02/04 02:47:44;;;;;;;12.35;7.05;;;;;;;8.64;92.46;98009.03;4176685;28;20206;-84
2022/02/04 02:52:15;;;;;;;9.70;7.35;;;;;;;8.66;91.69;98008.94;4178457;28;20207;-84
2022/02/04 02:57:08;;;;;;;9.03;6.93;;;;;;;8.59;92.65;98011.09;4102073;28;20233;-83
2022/02/04 02:59:14;;;;;;;9.27;7.45;;;;;;;8.55;92.65;98022.63;4159915;28;20633;-83
2022/02/04 03:01:17;;;;;;;10.63;7.30;;;;;;;8.54;93.38;98027.94;4193849;28;20208;-83
2022/02/04 03:03:24;;;;;;;8.73;6.70;;;;;;;8.53;93.51;98026.25;4177479;28;20206;-84
2022/02/04 03:05:27;;;;;;;8.95;6.72;;;;;;;8.51;94.06;98022.91;4172564;28;20248;-84
2022/02/04 03:07:30;;;;;;;7.85;6.40;;;;;;;8.50;92.58;98016.03;4175939;28;20214;-83
2022/02/04 03:09:35;;;;;;;10.38;7.05;;;;;;;8.50;94.02;98019.47;4159154;28;20207;-84
2022/02/04 03:11:38;;;;;;;8.95;6.55;;;;;;;8.50;92.87;98024.66;4185597;28;20612;-84
2022/02/04 03:13:42;;;;;;;8.30;6.50;;;;;;;8.50;93.79;98016.03;4159828;28;20235;-83
2022/02/04 03:15:46;;;;;;;10.15;6.45;;;;;;;8.49;93.80;98011.75;4166113;28;20303;-84
2022/02/04 03:17:57;;;;;;;8.52;6.35;;;;;;;8.50;93.10;98016.03;4155175;28;20207;-83
2022/02/04 03:20:05;;;;;;;8.20;6.80;;;;;;;8.49;93.67;98011.75;4150404;28;20203;-84
2022/02/04 03:22:12;;;;;;;9.25;6.60;;;;;;;8.49;93.94;98012.63;4168317;28;21005;-83
2022/02/04 03:24:20;;;;;;;10.10;7.00;;;;;;;8.48;93.89;98012.72;4191096;28;20266;-85
2022/02/04 03:26:31;;;;;;;8.00;6.63;;;;;;;8.49;94.71;98009.16;4177293;28;20230;-83
2022/02/04 03:28:35;;;;;;;9.05;7.10;;;;;;;8.51;94.66;98012.53;4162092;28;20206;-83
2022/02/04 03:30:39;;;;;;;6.95;6.03;;;;;;;8.53;94.82;98018.44;4172250;28;20207;-83
2022/02/04 03:32:48;;;;;;;10.15;7.50;;;;;;;8.49;94.89;98016.94;4160804;28;20237;-83
2022/02/04 03:34:51;;;;;;;11.88;7.30;;;;;;;8.50;94.58;98019.47;4181425;28;20215;-83
2022/02/04 03:36:55;;;;;;;8.63;6.32;;;;;;;8.47;94.30;98011.84;4148249;28;20860;-84
2022/02/04 03:38:58;;;;;;;9.23;6.10;;;;;;;8.48;94.77;98017.91;4156522;28;20204;-83
2022/02/04 03:41:01;;;;;;;7.18;5.80;;;;;;;8.46;94.73;98024.94;4175459;28;20213;-83
2022/02/04 03:43:06;;;;;;;7.38;6.35;;;;;;;8.44;95.21;98027.63;4188227;28;20198;-83
2022/02/04 03:45:09;;;;;;;6.63;5.50;;;;;;;8.43;95.46;98034.69;4151295;28;20208;-83
2022/02/04 03:47:14;;;;;;;7.60;6.40;;;;;;;8.44;94.60;98042.41;4167410;28;20191;-83
2022/02/04 03:49:17;;;;;;;10.83;6.00;;;;;;;8.43;95.02;98040.72;4175204;28;20197;-83
2022/02/04 03:51:20;;;;;;;7.03;5.87;;;;;;;8.43;95.50;98039.88;4181440;28;21231;-83
2022/02/04 03:53:24;;;;;;;7.65;5.60;;;;;;;8.43;94.43;98040.72;4177348;28;20639;-84
2022/02/04 03:55:27;;;;;;;7.53;5.63;;;;;;;8.43;94.48;98045.91;4152340;28;20234;-83
2022/02/04 03:57:30;;;;;;;6.93;5.90;;;;;;;8.38;95.39;98037.56;4153367;28;20195;-83
2022/02/04 03:59:34;;;;;;;7.10;5.90;;;;;;;8.39;94.74;98041.84;4171334;28;20202;-83
2022/02/04 04:01:37;;;;;;;7.78;6.07;;;;;;;8.36;95.43;98039.44;4159214;28;20633;-83
2022/02/04 04:03:43;;;;;;;8.40;6.03;;;;;;;8.33;95.80;98038.75;4188827;28;20213;-83
2022/02/04 04:05:49;;;;;;;8.07;5.95;;;;;;;8.32;95.66;98037.94;4160984;28;20253;-83
2022/02/04 04:07:52;;;;;;;7.32;5.55;;;;;;;8.35;94.85;98045.53;4170434;28;20206;-83
2022/02/04 04:10:03;;;;;;;6.93;5.70;;;;;;;8.35;94.76;98042.94;4176092;28;20202;-83
2022/02/04 04:12:07;;;;;;;7.53;5.88;;;;;;;8.32;96.04;98040.53;4173655;28;20623;-83
2022/02/04 04:14:13;;;;;;;7.53;6.30;;;;;;;8.27;94.81;98047.78;4159257;28;20719;-84
2022/02/04 04:16:19;;;;;;;7.60;5.68;;;;;;;8.27;95.70;98036.53;4153436;28;20300;-83
2022/02/04 04:18:24;;;;;;;7.57;6.30;;;;;;;8.18;95.63;98040.53;4172102;28;20214;-83
2022/02/04 04:20:28;;;;;;;7.20;5.30;;;;;;;8.20;96.00;98040.44;4164623;28;20696;-83
2022/02/04 04:22:32;;;;;;;7.72;5.85;;;;;;;8.17;96.45;98041.44;4179831;28;20641;-83
2022/02/04 04:24:36;;;;;;;7.10;5.50;;;;;;;8.16;95.72;98047.59;4171922;28;20587;-83
2022/02/04 04:26:42;;;;;;;7.72;6.20;;;;;;;8.13;96.45;98045.19;4174839;28;20643;-83
2022/02/04 04:28:45;;;;;;;7.95;6.20;;;;;;;8.16;95.66;98042.41;4187613;28;20195;-83
2022/02/04 04:30:48;;;;;;;8.55;6.60;;;;;;;8.15;96.12;98045.09;4173826;28;20204;-83
2022/02/04 04:32:55;;;;;;;7.03;6.18;;;;;;;8.14;96.21;98044.22;4178240;28;20198;-83
2022/02/04 04:34:58;;;;;;;7.65;6.13;;;;;;;8.15;96.83;98042.50;4177461;28;20241;-83
2022/02/04 04:37:01;;;;;;;6.60;5.50;;;;;;;8.13;95.92;98047.78;4152221;28;20225;-85
2022/02/04 04:39:11;;;;;;;8.95;6.60;;;;;;;8.12;96.53;98043.50;4152310;28;20213;-83
2022/02/04 04:41:26;;;;;;;8.43;6.18;;;;;;;8.12;95.98;98046.09;4164930;28;20807;-83
2022/02/04 04:43:44;;;;;;;8.90;6.20;;;;;;;8.10;96.34;98047.91;4150539;28;20200;-83
2022/02/04 04:46:20;;;;;;;7.85;6.13;;;;;;;8.12;97.19;98053.06;4169133;28;20646;-83
2022/02/04 05:26:25;;;;;;;8.20;6.43;;;;;;;8.30;96.40;98065.78;4161208;28;20696;-83
2022/02/04 05:28:37;;;;;;;9.20;6.07;;;;;;;8.26;96.44;98066.88;4170474;28;20280;-82
2022/02/04 05:30:40;;;;;;;8.80;6.30;;;;;;;8.27;96.46;98063.38;4168651;28;20632;-83
2022/02/04 05:32:45;;;;;;;7.45;6.20;;;;;;;8.26;96.04;98069.47;4165499;28;20214;-83
2022/02/04 05:34:52;;;;;;;8.10;5.85;;;;;;;8.32;95.72;98070.88;4175750;28;20829;-83
2022/02/04 05:37:02;;;;;;;10.60;6.47;;;;;;;8.24;96.07;98060.94;4172143;28;20364;-84
2022/02/04 05:39:05;;;;;;;8.88;6.72;;;;;;;8.29;96.49;98069.28;4160043;28;20207;-84
2022/02/04 05:41:10;;;;;;;7.45;6.00;;;;;;;8.30;96.08;98070.97;4182658;28;20616;-83
2022/02/04 05:43:19;;;;;;;8.25;6.35;;;;;;;8.28;96.42;98075.41;4171185;28;20774;-83
2022/02/04 05:45:27;;;;;;;7.30;6.05;;;;;;;8.29;96.21;98069.28;4187164;28;20297;-83
2022/02/04 05:47:31;;;;;;;7.80;5.82;;;;;;;8.25;96.50;98073.00;4162422;28;20214;-83
2022/02/04 05:49:36;;;;;;;7.00;5.50;;;;;;;8.24;96.63;98075.69;4156682;28;20210;-84
2022/02/04 05:51:47;;;;;;;8.48;6.13;;;;;;;8.20;97.10;98082.81;4162628;28;20198;-83
2022/02/04 05:53:58;;;;;;;7.80;6.10;;;;;;;8.16;95.64;98089.16;4170317;28;20202;-83
2022/02/04 05:56:09;;;;;;;6.88;6.03;;;;;;;8.17;96.11;98085.59;4171065;28;20209;-83
2022/02/04 05:58:29;;;;;;;7.93;5.22;;;;;;;8.17;95.97;98088.19;4173557;28;20208;-83
2022/02/04 06:00:39;;;;;;;5.65;4.95;;;;;;;8.16;96.17;98083.09;4158344;28;20233;-83
2022/02/04 06:02:52;;;;;;;7.50;5.40;;;;;;;8.13;96.14;98081.53;4160242;28;20646;-84
2022/02/04 06:05:00;;;;;;;7.43;5.15;;;;;;;8.14;95.40;98087.56;4159904;28;20635;-83
2022/02/04 06:12:21;;;;;;;7.45;5.50;;;;;;;8.07;97.04;98079.25;4155292;28;20203;-83
2022/02/04 06:14:43;;;;;;;9.10;6.35;;;;;;;8.04;95.21;98089.84;4143982;28;20232;-83
2022/02/04 06:23:50;;;;;;;6.80;5.00;;;;;;;8.09;95.27;98089.56;4172905;28;20686;-84
2022/02/04 06:25:54;;;;;;;9.43;5.93;;;;;;;8.11;96.25;98088.56;4174581;28;20301;-84
2022/02/04 06:27:57;;;;;;;6.90;5.38;;;;;;;8.12;95.73;98087.66;4178925;28;20210;-82
2022/02/04 06:30:00;;;;;;;7.63;6.03;;;;;;;8.13;96.35;98094.53;4176819;28;20235;-84
2022/02/04 06:32:05;;;;;;;7.57;5.65;;;;;;;8.14;96.00;98088.38;4166874;28;20666;-83
2022/02/04 06:34:08;;;;;;;7.82;5.50;;;;;;;8.17;96.26;98095.16;4153743;28;20210;-84
2022/02/04 06:36:12;;;;;;;7.35;5.80;;;;;;;8.17;95.47;98085.59;4159390;28;20624;-84
2022/02/04 06:38:15;;;;;;;7.80;5.90;;;;;;;8.19;95.83;98093.31;4172041;28;20202;-85
2022/02/04 06:40:18;;;;;;;7.00;5.13;;;;;;;8.21;95.61;98088.84;4171881;28;20198;-84
2022/02/04 06:42:24;;;;;;;5.95;5.32;;;;;;;8.23;95.98;98100.81;4156859;28;20199;-84
2022/02/04 06:44:27;;;;;;;7.68;5.57;;;;;;;8.18;95.03;98100.28;4174515;28;20206;-85
2022/02/04 06:46:30;;;;;;;6.85;5.68;;;;;;;8.13;95.64;98102.31;4167411;28;20214;-84
2022/02/04 06:48:33;;;;;;;8.00;5.55;;;;;;;8.02;95.32;98096.84;4180029;28;20203;-84
2022/02/04 06:50:36;;;;;;;7.28;5.30;;;;;;;7.98;95.58;98104.91;4161709;28;20203;-83
2022/02/04 06:52:40;;;;;;;7.40;5.55;;;;;;;7.99;96.38;98102.22;4177827;28;20883;-84
2022/02/04 06:54:46;;;;;;;6.38;4.90;;;;;;;7.96;95.27;98098.16;4177697;28;20234;-84
2022/02/04 06:56:49;;;;;;;7.22;5.63;;;;;;;7.94;94.72;98102.56;4177529;28;20233;-85
2022/02/04 06:58:54;;;;;;;7.30;5.13;;;;;;;7.81;95.86;98096.44;4157275;28;20272;-83
2022/02/04 07:01:01;;;;;;;7.57;6.18;;;;;;;7.75;95.24;98099.38;4166242;28;20214;-83
2022/02/04 07:03:04;;;;;;;12.00;8.40;;;;;;;7.78;95.44;98097.44;4158202;28;20242;-83
2022/02/04 07:05:11;;;;;;;9.20;6.63;;;;;;;7.81;96.89;98102.44;4174694;28;20263;-83
2022/02/04 07:07:16;;;;;;;9.50;6.55;;;;;;;7.77;96.72;98107.91;4182590;28;20199;-82
2022/02/04 07:09:26;;;;;;;7.80;5.80;;;;;;;7.69;96.34;98102.31;4179333;28;20224;-82
2022/02/04 07:11:51;;;;;;;8.43;6.15;;;;;;;7.62;95.69;98091.47;4173720;28;20249;-82
2022/02/04 07:14:09;;;;;;;6.57;5.07;;;;;;;7.57;96.51;98098.66;4161409;28;20713;-81
2022/02/04 07:16:27;;;;;;;6.82;5.57;;;;;;;7.57;96.28;98097.81;4153195;28;20203;-83
2022/02/04 07:20:52;;;;;;;11.38;9.35;;;;;;;7.61;97.62;98099.34;4168440;28;20216;-83
2022/02/04 07:22:56;;;;;;;8.48;6.13;;;;;;;7.62;96.23;98100.97;4168978;28;20267;-82
2022/02/04 07:25:01;;;;;;;6.63;5.35;;;;;;;7.62;96.84;98098.38;4179687;28;20647;-82
2022/02/04 07:27:05;;;;;;;7.75;5.60;;;;;;;7.61;96.57;98099.34;4157700;28;20203;-83
2022/02/04 07:29:11;;;;;;;7.63;5.85;;;;;;;7.55;96.72;98105.69;4179025;28;20218;-82
2022/02/04 07:31:15;;;;;;;7.45;5.55;;;;;;;7.52;97.00;98094.66;4174190;28;20194;-82
2022/02/04 07:33:21;;;;;;;7.40;6.38;;;;;;;7.51;96.98;98099.00;4160016;28;20203;-82
2022/02/04 07:38:35;;;;;;;6.85;5.38;;;;;;;7.53;97.99;98106.69;4162107;28;20211;-82
2022/02/04 07:42:59;;;;;;;7.88;5.55;;;;;;;7.53;97.28;98110.13;4132961;28;20308;-81
2022/02/04 07:45:04;;;;;;;8.27;6.07;;;;;;;7.61;96.85;98109.72;4136497;28;20202;-82
2022/02/04 07:47:07;;;;;;;7.47;5.60;;;;;;;7.71;98.52;98101.31;4142869;28;20327;-81
2022/02/04 07:49:10;;;;;;;7.47;5.43;;;;;;;7.78;96.49;98107.00;4174008;28;20202;-82
2022/02/04 07:51:14;;;;;;;8.32;6.20;;;;;;;7.79;96.38;98104.31;4160545;28;20202;-81
2022/02/04 07:53:19;;;;;;;9.25;6.10;;;;;;;7.78;97.82;98107.81;4162964;28;20207;-80
2022/02/04 07:55:22;;;;;;;7.60;5.88;;;;;;;7.81;97.27;98106.81;4173583;28;20234;-81
2022/02/04 07:57:25;;;;;;;7.03;6.05;;;;;;;7.85;97.24;98100.50;4175607;28;20729;-81
2022/02/04 07:59:28;;;;;;;9.13;6.47;;;;;;;7.84;97.40;98102.28;4173232;28;20268;-82
2022/02/04 08:01:33;;;;;;;7.35;6.13;;;;;;;7.78;96.20;98096.59;4167555;28;20206;-83
2022/02/04 08:03:40;;;;;;;11.07;7.70;;;;;;;7.79;97.47;98096.53;4170820;28;20207;-83
2022/02/04 08:05:44;;;;;;;7.97;5.70;;;;;;;7.67;96.03;98099.81;4172588;28;20219;-82
2022/02/04 08:07:52;;;;;;;7.97;6.45;;;;;;;7.65;97.90;98101.66;4170468;28;20506;-82
2022/02/04 08:10:04;;;;;;;6.85;5.50;;;;;;;7.61;97.91;98101.94;4183441;28;20221;-84
2022/02/04 08:12:24;;;;;;;8.77;6.20;;;;;;;7.67;96.59;98104.19;4193855;28;20796;-84
2022/02/04 08:14:49;;;;;;;8.07;5.80;;;;;;;7.73;97.66;98103.84;4171922;28;20586;-84
2022/02/04 08:17:19;;;;;;;7.80;6.45;;;;;;;7.81;97.78;98102.44;4171648;28;20254;-84
2022/02/04 08:24:26;;;;;;;14.23;8.57;;;;;;;8.44;96.92;98112.56;4147567;28;20218;-85
2022/02/04 08:38:32;;;;;;;9.48;7.55;;;;;;;8.76;95.17;98107.06;4162308;28;20223;-84
2022/02/04 08:50:38;;;;;;;8.10;6.55;;;;;;;8.98;92.27;98095.25;4184468;28;20210;-82
2022/02/04 08:52:51;;;;;;;7.93;6.20;;;;;;;8.82;92.62;98098.06;4168145;28;20214;-82
2022/02/04 08:55:01;;;;;;;7.78;6.30;;;;;;;8.74;92.66;98101.16;4187092;28;20264;-83
2022/02/04 08:57:08;;;;;;;12.52;7.10;;;;;;;8.82;92.83;98100.69;4175345;28;20294;-81
2022/02/04 08:59:17;;;;;;;7.82;6.68;;;;;;;8.93;93.74;98096.50;4185520;28;20580;-82
2022/02/04 09:01:25;;;;;;;8.07;6.88;;;;;;;9.05;92.91;98096.56;4173482;28;20230;-85
2022/02/04 09:03:35;;;;;;;7.97;6.80;;;;;;;9.26;93.21;98092.63;4161952;28;20278;-82
2022/02/04 09:06:03;;;;;;;8.80;7.32;;;;;;;9.50;93.53;98098.84;4174019;28;20217;-83
2022/02/04 09:08:19;;;;;;;12.98;9.63;;;;;;;9.47;91.67;98099.03;4175300;28;20292;-83
2022/02/04 09:10:26;;;;;;;11.02;7.80;;;;;;;9.53;91.63;98099.50;4170137;28;20219;-83
2022/02/04 09:17:41;;;;;;;7.72;6.45;;;;;;;9.84;90.69;98099.19;4172880;28;21203;-84
2022/02/04 09:19:59;;;;;;;7.90;6.47;;;;;;;9.80;89.45;98102.09;4174246;28;20321;-83
2022/02/04 09:22:18;;;;;;;8.35;6.10;;;;;;;9.71;90.17;98098.34;4172344;28;20774;-83
2022/02/04 09:24:22;;;;;;;7.45;5.97;;;;;;;9.43;89.96;98097.59;4155311;28;20269;-83
2022/02/04 09:26:26;;;;;;;7.70;6.22;;;;;;;9.28;88.92;98095.97;4189057;28;20198;-83
2022/02/04 09:28:29;;;;;;;10.02;6.97;;;;;;;9.26;91.24;98095.22;4146477;28;20216;-83
2022/02/04 09:30:32;;;;;;;9.00;6.60;;;;;;;9.28;91.65;98090.75;4172504;28;20271;-83
2022/02/04 09:32:36;;;;;;;8.98;6.68;;;;;;;9.29;92.08;98086.38;4153223;28;20207;-84
2022/02/04 09:34:40;;;;;;;8.23;5.85;;;;;;;9.32;91.51;98083.56;4171155;28;20214;-83
2022/02/04 09:37:06;;;;;;;5.60;5.00;;;;;;;9.37;92.03;98077.16;4157673;28;20198;-83
2022/02/04 09:39:10;;;;;;;5.75;4.95;;;;;;;9.35;90.38;98072.97;4164686;28;20273;-83
2022/02/04 09:41:13;;;;;;;5.07;4.32;;;;;;;9.33;90.11;98072.25;4164575;28;20215;-83
2022/02/04 09:43:16;;;;;;;5.30;4.40;;;;;;;9.31;89.85;98072.34;4176740;28;20210;-83
2022/02/04 09:45:22;;;;;;;6.43;5.13;;;;;;;9.31;90.21;98076.72;4161841;28;20227;-83
2022/02/04 09:47:34;;;;;;;4.53;3.58;;;;;;;9.15;89.16;98078.59;4158215;28;20218;-85
2022/02/04 09:49:47;;;;;;;3.88;3.03;;;;;;;9.06;90.24;98077.41;4173516;28;20206;-83
2022/02/04 10:13:54;;;;;;;4.70;3.30;;;;;;;9.67;91.25;98060.41;4151272;28;21044;-83
2022/02/04 10:16:24;;;;;;;3.88;2.90;;;;;;;9.76;90.55;98070.22;4175275;28;20668;-83
2022/02/04 10:18:32;;;;;;;4.97;3.60;;;;;;;9.83;91.34;98068.84;4173310;28;20255;-83
2022/02/04 10:20:39;;;;;;;3.63;2.73;;;;;;;9.82;89.48;98067.22;4160297;28;20692;-83
2022/02/04 10:22:48;;;;;;;2.90;2.60;;;;;;;9.82;89.98;98071.56;4170117;28;20641;-83
2022/02/04 10:24:59;;;;;;;4.37;2.97;;;;;;;9.83;88.85;98062.81;4171046;28;21226;-82
2022/02/04 10:27:16;;;;;;;3.33;2.70;;;;;;;9.78;87.71;98064.91;4175773;28;20652;-83
2022/02/04 10:29:21;;;;;;;4.73;3.30;;;;;;;9.69;88.38;98068.09;4176584;28;20734;-83
2022/02/04 10:31:26;;;;;;;3.23;2.50;;;;;;;9.61;87.99;98062.56;4177330;28;20645;-83
2022/02/04 10:33:30;;;;;;;2.20;1.70;;;;;;;9.52;87.73;98052.75;4173361;28;20715;-83
2022/02/04 10:35:37;;;;;;;2.87;1.70;;;;;;;9.48;88.39;98056.47;4178880;28;20616;-82
2022/02/04 10:37:58;;;;;;;3.10;2.47;;;;;;;9.42;88.91;98051.66;4176623;28;20661;-82
2022/02/04 10:40:09;;;;;;;6.23;3.70;;;;;;;9.42;88.80;98057.69;4178941;28;20760;-82
2022/02/04 10:42:23;;;;;;;10.87;5.60;;;;;;;9.40;88.76;98050.94;4171221;28;20689;-83
2022/02/04 10:44:30;;;;;;;7.00;4.43;;;;;;;9.38;88.53;98052.78;4161461;28;20643;-83
2022/02/04 10:46:39;;;;;;;3.42;2.25;;;;;;;9.37;88.65;98047.69;4174509;28;20646;-83
2022/02/04 10:49:03;;;;;;;4.30;2.83;;;;;;;9.33;88.87;98041.84;4177352;28;20206;-82
2022/02/04 10:56:18;;;;;;;4.03;2.87;;;;;;;9.27;88.69;98039.63;4181409;28;20676;-83
2022/02/04 10:58:41;;;;;;;4.53;3.87;;;;;;;9.24;89.11;98037.22;4161126;28;21193;-83
2022/02/04 11:01:09;;;;;;;4.97;3.77;;;;;;;9.20;88.72;98033.16;4171096;28;20649;-83
2022/02/04 11:03:13;;;;;;;4.10;3.30;;;;;;;9.20;89.36;98027.97;4177923;28;20643;-83
2022/02/04 11:05:22;;;;;;;3.60;2.53;;;;;;;9.21;89.67;98027.00;4175831;28;20633;-83
2022/02/04 11:08:00;;;;;;;3.57;2.47;;;;;;;9.24;89.59;98026.00;4173512;28;20718;-82
2022/02/04 11:10:13;;;;;;;3.03;2.47;;;;;;;9.24;89.24;98024.22;4195927;28;20650;-84
2022/02/04 11:21:47;;;;;;;3.80;2.77;;;;;;;9.25;89.21;98028.50;4175375;28;20631;-83
2022/02/04 11:31:24;;;;;;;8.90;5.47;;;;;;;9.33;88.84;97992.41;4188873;28;20288;-83
2022/02/04 11:33:50;;;;;;;4.60;3.90;;;;;;;9.32;88.88;97988.16;4190266;28;20632;-83
2022/02/04 11:35:58;;;;;;;6.07;3.60;;;;;;;9.35;89.18;97995.75;4174600;28;20640;-83
2022/02/04 11:48:25;;;;;;;9.40;5.60;;;;;;;9.49;87.51;97980.06;4163556;28;21067;-83
2022/02/04 11:53:31;;;;;;;3.67;3.00;;;;;;;9.60;87.05;97978.41;4110201;28;20654;-84
2022/02/04 11:55:36;;;;;;;2.63;2.23;;;;;;;9.65;87.17;97975.50;4168001;28;20732;-82
2022/02/04 11:57:40;;;;;;;3.80;2.90;;;;;;;9.67;87.54;97973.66;4176987;28;20643;-82
2022/02/04 11:59:45;;;;;;;2.67;2.30;;;;;;;9.67;87.27;97964.06;4174190;28;20656;-82
2022/02/04 12:01:48;;;;;;;4.03;3.27;;;;;;;9.69;87.15;97967.38;4159347;28;20669;-83
2022/02/04 12:03:55;;;;;;;4.50;2.60;;;;;;;9.69;86.22;97962.19;4160766;28;20650;-85
2022/02/04 12:06:00;;;;;;;3.60;3.00;;;;;;;9.71;87.27;97957.72;4171322;28;20620;-83
2022/02/04 12:08:21;;;;;;;3.90;3.27;;;;;;;9.73;87.03;97955.84;4156923;28;21113;-85
2022/02/04 12:10:32;;;;;;;3.57;2.67;;;;;;;9.70;87.08;97944.81;4159742;28;20641;-83
2022/02/04 12:13:00;;;;;;;4.03;3.27;;;;;;;9.71;87.14;97949.91;4152838;28;21533;-83
2022/02/04 12:15:33;;;;;;;8.23;5.03;;;;;;;9.74;87.25;97949.69;4164600;28;20628;-83
2022/02/04 12:17:40;;;;;;;6.40;4.90;;;;;;;9.73;86.99;97948.03;4174762;28;20647;-84
2022/02/04 12:19:48;;;;;;;4.03;3.00;;;;;;;9.72;86.83;97942.91;4157426;28;20697;-83
2022/02/04 12:21:52;;;;;;;4.00;2.93;;;;;;;9.74;85.80;97943.63;4151371;28;20643;-83
2022/02/04 12:23:56;;;;;;;3.73;2.60;;;;;;;9.65;86.11;97934.69;4147304;28;20701;-84
2022/02/04 12:26:01;;;;;;;3.03;2.63;;;;;;;9.64;86.50;97929.59;4160034;28;21228;-83
2022/02/04 12:28:04;;;;;;;3.40;2.33;;;;;;;9.56;85.98;97934.47;4173307;28;20640;-83
2022/02/04 12:30:45;;;;;;;2.90;2.60;;;;;;;9.53;86.69;97926.84;4187143;28;20203;-83
2022/02/04 12:32:51;;;;;;;5.40;2.73;;;;;;;9.56;86.65;97924.03;4173639;28;20636;-84
2022/02/04 12:34:58;;;;;;;5.10;4.00;;;;;;;9.46;86.17;97923.00;4176156;28;21474;-84
2022/02/04 12:37:02;;;;;;;3.75;3.42;;;;;;;9.40;85.84;97913.00;4173138;28;21036;-82
2022/02/04 12:39:08;;;;;;;3.80;2.90;;;;;;;9.43;85.73;97915.41;4177357;28;20371;-83
2022/02/04 12:41:20;;;;;;;4.23;3.20;;;;;;;9.42;85.73;97909.34;4173686;28;20651;-81
2022/02/04 12:43:25;;;;;;;2.43;1.73;;;;;;;9.35;85.27;97915.09;4175446;28;20636;-82
2022/02/04 12:45:34;;;;;;;2.90;1.80;;;;;;;9.38;85.30;97907.91;4161077;28;20739;-83
2022/02/04 12:47:37;;;;;;;3.77;3.00;;;;;;;9.37;84.25;97908.00;4171102;28;20633;-82
2022/02/04 12:49:47;;;;;;;2.73;2.10;;;;;;;9.32;85.08;97904.03;4144928;28;20637;-82
2022/02/04 12:51:57;;;;;;;7.57;5.50;;;;;;;9.39;84.66;97898.31;4157336;28;20633;-83
2022/02/04 12:54:01;;;;;;;6.47;4.45;;;;;;;9.49;84.91;97897.59;4173298;28;22620;-82
2022/02/04 12:56:18;;;;;;;2.78;2.08;;;;;;;9.59;84.91;97898.66;4159652;28;20213;-82
2022/02/04 12:58:41;;;;;;;3.23;1.87;;;;;;;9.71;84.64;97892.63;4172942;28;20550;-82
2022/02/04 13:03:11;;;;;;;6.93;3.87;;;;;;;9.85;83.94;97884.69;4117827;28;21434;-82
2022/02/04 13:07:49;;;;;;;3.07;2.30;;;;;;;9.91;82.75;97882.50;4170799;28;20645;-82
2022/02/04 13:09:52;;;;;;;6.00;2.40;;;;;;;9.94;83.30;97879.72;4172923;28;20666;-83
2022/02/04 13:12:17;;;;;;;3.43;2.60;;;;;;;9.96;83.03;97872.63;4166320;28;20744;-82
2022/02/04 13:14:27;;;;;;;4.03;2.33;;;;;;;9.98;83.07;97877.72;4167273;28;20726;-83
2022/02/04 13:16:32;;;;;;;2.50;1.90;;;;;;;9.98;83.30;97862.09;4151350;28;20637;-83
2022/02/04 13:18:35;;;;;;;2.50;2.00;;;;;;;9.97;82.43;97858.66;4189169;28;20635;-83
2022/02/04 13:20:40;;;;;;;3.10;2.17;;;;;;;9.90;82.76;97857.38;4174273;28;20747;-83
2022/02/04 13:22:46;;;;;;;2.90;1.90;;;;;;;9.90;83.17;97859.16;4174016;28;20637;-83
2022/02/04 13:25:08;;;;;;;2.80;2.00;;;;;;;9.87;82.80;97860.19;4154004;28;20647;-83
2022/02/04 13:27:12;;;;;;;2.30;1.80;;;;;;;9.84;82.99;97865.59;4173599;28;20631;-83
2022/02/04 13:29:16;;;;;;;2.60;1.70;;;;;;;9.75;83.13;97868.03;4164720;28;20637;-83
2022/02/04 13:31:22;;;;;;;3.00;1.80;;;;;;;9.77;83.97;97865.31;4173000;28;20727;-84
2022/02/04 13:33:26;;;;;;;2.73;2.20;;;;;;;9.78;83.00;97851.38;4171042;28;20661;-83
2022/02/04 13:35:38;;;;;;;2.90;2.43;;;;;;;9.74;83.12;97853.34;4172202;28;20632;-83
2022/02/04 13:37:49;;;;;;;2.93;2.27;;;;;;;9.72;82.97;97855.22;4171998;28;21205;-83
2022/02/04 13:39:59;;;;;;;2.53;1.87;;;;;;;9.61;83.20;97841.28;4169987;28;20744;-83
2022/02/04 13:42:11;;;;;;;4.40;2.00;;;;;;;9.62;83.52;97840.31;4165476;28;20692;-83
2022/02/04 13:44:29;;;;;;;2.80;1.80;;;;;;;9.57;82.78;97842.41;4148263;28;20640;-83
2022/02/04 13:46:40;;;;;;;2.00;1.63;;;;;;;9.52;82.21;97841.91;4170504;28;20675;-83
2022/02/04 13:49:09;;;;;;;3.10;1.83;;;;;;;9.45;82.23;97838.88;4188093;28;21231;-83
2022/02/04 13:51:22;;;;;;;1.90;1.47;;;;;;;9.46;82.79;97839.72;4170373;28;21950;-83
2022/02/04 13:53:35;;;;;;;1.83;1.47;;;;;;;9.40;82.49;97840.13;4167762;28;20677;-83
2022/02/04 13:55:54;;;;;;;2.20;1.40;;;;;;;9.43;81.91;97832.13;4185494;28;20625;-82